UAE5GE OMDB-OBBI
Flight info
| Callsign | UAE5GE |
|---|---|
| Flight time | 0h 53m |
| Altitude | 26000 |
| Route | NABIX P699 ORMID M556 ORDIG |
| Aircraft | B77W/H-SDE1E2E3FGHIJ2J3J4J5M1RWXY/LB1D1 |
Departure
| Time | 2026-05-07 04:23 |
|---|---|
| Airport | Dubai International Airport (OMDB) |
Arrival
| Time | 2026-05-07 05:16 |
|---|---|
| Airport | Bahrain International Airport (OBBI) |
| Time | Latitude | Longitude | Altitude | Speed | Heading |
|---|---|---|---|---|---|
| 2026-05-07 03:41 | 25.24309 | 55.37444 | 49 ft | 0 kts | 211° |
| 2026-05-07 04:14 | 25.24321 | 55.37452 | 49 ft | 2 kts | 211° |
| 2026-05-07 04:14 | 25.24334 | 55.37461 | 49 ft | 2 kts | 211° |
| 2026-05-07 04:14 | 25.24347 | 55.37470 | 50 ft | 1 kts | 211° |
| 2026-05-07 04:15 | 25.24355 | 55.37475 | 50 ft | 2 kts | 207° |
| 2026-05-07 04:15 | 25.24364 | 55.37479 | 50 ft | 2 kts | 191° |
| 2026-05-07 04:15 | 25.24379 | 55.37480 | 51 ft | 2 kts | 172° |
| 2026-05-07 04:15 | 25.24394 | 55.37476 | 52 ft | 2 kts | 155° |
| 2026-05-07 04:16 | 25.24406 | 55.37468 | 52 ft | 2 kts | 137° |
| 2026-05-07 04:16 | 25.24415 | 55.37457 | 53 ft | 0 kts | 121° |
| 2026-05-07 04:16 | 25.24417 | 55.37452 | 53 ft | 0 kts | 120° |
| 2026-05-07 04:19 | 25.24411 | 55.37464 | 52 ft | 3 kts | 121° |
| 2026-05-07 04:19 | 25.24393 | 55.37497 | 51 ft | 6 kts | 121° |
| 2026-05-07 04:19 | 25.24365 | 55.37548 | 50 ft | 8 kts | 121° |
| 2026-05-07 04:19 | 25.24331 | 55.37609 | 49 ft | 9 kts | 122° |
| 2026-05-07 04:20 | 25.24294 | 55.37673 | 49 ft | 9 kts | 122° |
| 2026-05-07 04:20 | 25.24267 | 55.37732 | 50 ft | 7 kts | 99° |
| 2026-05-07 04:20 | 25.24277 | 55.37769 | 52 ft | 3 kts | 51° |
| 2026-05-07 04:21 | 25.24295 | 55.37788 | 54 ft | 2 kts | 39° |
| 2026-05-07 04:21 | 25.24335 | 55.37820 | 57 ft | 11 kts | 34° |
| 2026-05-07 04:21 | 25.24434 | 55.37894 | 58 ft | 20 kts | 34° |
| 2026-05-07 04:21 | 25.24549 | 55.37981 | 58 ft | 18 kts | 34° |
| 2026-05-07 04:22 | 25.24653 | 55.38056 | 58 ft | 17 kts | 31° |
| 2026-05-07 04:22 | 25.24739 | 55.38098 | 58 ft | 11 kts | 354° |
| 2026-05-07 04:22 | 25.24795 | 55.38047 | 58 ft | 10 kts | 303° |
| 2026-05-07 04:22 | 25.24877 | 55.37901 | 56 ft | 49 kts | 301° |
| 2026-05-07 04:23 | 25.25195 | 55.37328 | 52 ft | 124 kts | 301° |
| 2026-05-07 04:23 | 25.25767 | 55.36288 | 62 ft | 187 kts | 298° |
| 2026-05-07 04:23 | 25.26463 | 55.35018 | 698 ft | 196 kts | 299° |
| 2026-05-07 04:23 | 25.27187 | 55.33728 | 1621 ft | 197 kts | 299° |
| 2026-05-07 04:24 | 25.27910 | 55.32435 | 2290 ft | 200 kts | 299° |
| 2026-05-07 04:24 | 25.28637 | 55.31121 | 2975 ft | 204 kts | 297° |
| 2026-05-07 04:24 | 25.29104 | 55.29664 | 3642 ft | 205 kts | 274° |
| 2026-05-07 04:24 | 25.28965 | 55.28122 | 4323 ft | 207 kts | 250° |
| 2026-05-07 04:25 | 25.28378 | 55.26653 | 4987 ft | 211 kts | 245° |
| 2026-05-07 04:25 | 25.27737 | 55.25180 | 5644 ft | 216 kts | 246° |
| 2026-05-07 04:25 | 25.27078 | 55.23637 | 6087 ft | 233 kts | 246° |
| 2026-05-07 04:25 | 25.26364 | 55.21953 | 6516 ft | 251 kts | 246° |
| 2026-05-07 04:26 | 25.25604 | 55.20162 | 6950 ft | 270 kts | 246° |
| 2026-05-07 04:26 | 25.24781 | 55.18224 | 7436 ft | 286 kts | 245° |
| 2026-05-07 04:26 | 25.24055 | 55.16132 | 8095 ft | 294 kts | 258° |
| 2026-05-07 04:26 | 25.23691 | 55.13911 | 8776 ft | 301 kts | 262° |
| 2026-05-07 04:27 | 25.23387 | 55.11595 | 9482 ft | 308 kts | 262° |
| 2026-05-07 04:27 | 25.23075 | 55.09240 | 10231 ft | 313 kts | 262° |
| 2026-05-07 04:27 | 25.22754 | 55.06870 | 11047 ft | 315 kts | 261° |
| 2026-05-07 04:27 | 25.22426 | 55.04468 | 11767 ft | 322 kts | 261° |
| 2026-05-07 04:28 | 25.22092 | 55.02031 | 12553 ft | 326 kts | 261° |
| 2026-05-07 04:28 | 25.21748 | 54.99535 | 13334 ft | 332 kts | 261° |
| 2026-05-07 04:28 | 25.21403 | 54.97024 | 14233 ft | 333 kts | 260° |
| 2026-05-07 04:28 | 25.21060 | 54.94535 | 15196 ft | 332 kts | 260° |
| 2026-05-07 04:29 | 25.20830 | 54.92004 | 16144 ft | 332 kts | 265° |
| 2026-05-07 04:29 | 25.20682 | 54.89456 | 16997 ft | 334 kts | 264° |
| 2026-05-07 04:29 | 25.20523 | 54.86934 | 17832 ft | 336 kts | 264° |
| 2026-05-07 04:29 | 25.20347 | 54.84364 | 18647 ft | 338 kts | 264° |
| 2026-05-07 04:30 | 25.20163 | 54.81774 | 19439 ft | 340 kts | 264° |
| 2026-05-07 04:30 | 25.19975 | 54.79170 | 20234 ft | 342 kts | 264° |
| 2026-05-07 04:30 | 25.19818 | 54.76579 | 21008 ft | 344 kts | 269° |
| 2026-05-07 04:30 | 25.19917 | 54.73924 | 21748 ft | 346 kts | 273° |
| 2026-05-07 04:31 | 25.20075 | 54.71303 | 22482 ft | 347 kts | 273° |
| 2026-05-07 04:31 | 25.20235 | 54.68622 | 23205 ft | 349 kts | 273° |
| 2026-05-07 04:31 | 25.20391 | 54.65981 | 23908 ft | 350 kts | 273° |
| 2026-05-07 04:31 | 25.20548 | 54.63289 | 24600 ft | 351 kts | 273° |
| 2026-05-07 04:32 | 25.20703 | 54.60626 | 25247 ft | 353 kts | 273° |
| 2026-05-07 04:32 | 25.20859 | 54.57917 | 25755 ft | 356 kts | 272° |
| 2026-05-07 04:32 | 25.21016 | 54.55166 | 25830 ft | 359 kts | 272° |
| 2026-05-07 04:32 | 25.21325 | 54.52434 | 25831 ft | 357 kts | 280° |
| 2026-05-07 04:33 | 25.21935 | 54.49786 | 25835 ft | 356 kts | 284° |
| 2026-05-07 04:33 | 25.22601 | 54.47161 | 25847 ft | 358 kts | 284° |
| 2026-05-07 04:33 | 25.23274 | 54.44502 | 25840 ft | 358 kts | 284° |
| 2026-05-07 04:33 | 25.23941 | 54.41866 | 25843 ft | 357 kts | 284° |
| 2026-05-07 04:34 | 25.24600 | 54.39249 | 25839 ft | 357 kts | 284° |
| 2026-05-07 04:34 | 25.25260 | 54.36627 | 25838 ft | 356 kts | 284° |
| 2026-05-07 04:34 | 25.25921 | 54.33996 | 25843 ft | 356 kts | 283° |
| 2026-05-07 04:34 | 25.26588 | 54.31339 | 25843 ft | 356 kts | 283° |
| 2026-05-07 04:35 | 25.27254 | 54.28667 | 25846 ft | 372 kts | 283° |
| 2026-05-07 04:35 | 25.27950 | 54.25854 | 25852 ft | 390 kts | 283° |
| 2026-05-07 04:35 | 25.28680 | 54.22901 | 25857 ft | 408 kts | 283° |
| 2026-05-07 04:35 | 25.29444 | 54.19812 | 25842 ft | 416 kts | 283° |
| 2026-05-07 04:36 | 25.30210 | 54.16718 | 25838 ft | 415 kts | 283° |
| 2026-05-07 04:36 | 25.30971 | 54.13643 | 25837 ft | 416 kts | 283° |
| 2026-05-07 04:36 | 25.31673 | 54.10573 | 25839 ft | 416 kts | 281° |
| 2026-05-07 04:36 | 25.32325 | 54.07457 | 25838 ft | 416 kts | 281° |
| 2026-05-07 04:37 | 25.32972 | 54.04359 | 25834 ft | 416 kts | 281° |
| 2026-05-07 04:37 | 25.33628 | 54.01229 | 25835 ft | 416 kts | 281° |
| 2026-05-07 04:37 | 25.34276 | 53.98140 | 25837 ft | 415 kts | 282° |
| 2026-05-07 04:37 | 25.34927 | 53.95041 | 25830 ft | 415 kts | 281° |
| 2026-05-07 04:38 | 25.35584 | 53.91917 | 25834 ft | 415 kts | 282° |
| 2026-05-07 04:38 | 25.36229 | 53.88848 | 25833 ft | 415 kts | 281° |
| 2026-05-07 04:38 | 25.36886 | 53.85722 | 25838 ft | 414 kts | 281° |
| 2026-05-07 04:38 | 25.37532 | 53.82649 | 25832 ft | 414 kts | 281° |
| 2026-05-07 04:39 | 25.38187 | 53.79534 | 25831 ft | 414 kts | 282° |
| 2026-05-07 04:39 | 25.38836 | 53.76444 | 25842 ft | 415 kts | 281° |
| 2026-05-07 04:39 | 25.39491 | 53.73322 | 25840 ft | 414 kts | 281° |
| 2026-05-07 04:39 | 25.40138 | 53.70236 | 25835 ft | 414 kts | 281° |
| 2026-05-07 04:40 | 25.40784 | 53.67152 | 25838 ft | 414 kts | 282° |
| 2026-05-07 04:40 | 25.41434 | 53.64045 | 25834 ft | 414 kts | 281° |
| 2026-05-07 04:40 | 25.42076 | 53.60972 | 25837 ft | 413 kts | 281° |
| 2026-05-07 04:40 | 25.42727 | 53.57857 | 25842 ft | 414 kts | 281° |
| 2026-05-07 04:41 | 25.43370 | 53.54771 | 25836 ft | 414 kts | 281° |
| 2026-05-07 04:41 | 25.44015 | 53.51675 | 25833 ft | 413 kts | 281° |
| 2026-05-07 04:41 | 25.44659 | 53.48578 | 25828 ft | 415 kts | 281° |
| 2026-05-07 04:41 | 25.45305 | 53.45464 | 25830 ft | 414 kts | 281° |
| 2026-05-07 04:42 | 25.45950 | 53.42358 | 25826 ft | 414 kts | 281° |
| 2026-05-07 04:42 | 25.46597 | 53.39237 | 25832 ft | 414 kts | 281° |
| 2026-05-07 04:42 | 25.47233 | 53.36165 | 25827 ft | 414 kts | 281° |
| 2026-05-07 04:42 | 25.47874 | 53.33064 | 25839 ft | 413 kts | 281° |
| 2026-05-07 04:43 | 25.48519 | 53.29946 | 25836 ft | 414 kts | 281° |
| 2026-05-07 04:43 | 25.49158 | 53.26850 | 25834 ft | 413 kts | 281° |
| 2026-05-07 04:43 | 25.49791 | 53.23779 | 25837 ft | 413 kts | 281° |
| 2026-05-07 04:43 | 25.50428 | 53.20677 | 25833 ft | 413 kts | 281° |
| 2026-05-07 04:44 | 25.51069 | 53.17551 | 25839 ft | 413 kts | 281° |
| 2026-05-07 04:44 | 25.51706 | 53.14448 | 25837 ft | 413 kts | 281° |
| 2026-05-07 04:44 | 25.52333 | 53.11384 | 25841 ft | 413 kts | 281° |
| 2026-05-07 04:44 | 25.52966 | 53.08286 | 25840 ft | 413 kts | 281° |
| 2026-05-07 04:45 | 25.53599 | 53.05191 | 25836 ft | 413 kts | 281° |
| 2026-05-07 04:45 | 25.54229 | 53.02104 | 25835 ft | 413 kts | 281° |
| 2026-05-07 04:45 | 25.54865 | 52.98985 | 25839 ft | 413 kts | 281° |
| 2026-05-07 04:45 | 25.55494 | 52.95895 | 25837 ft | 412 kts | 281° |
| 2026-05-07 04:46 | 25.56130 | 52.92825 | 25831 ft | 412 kts | 283° |
| 2026-05-07 04:46 | 25.57108 | 52.89801 | 25837 ft | 416 kts | 292° |
| 2026-05-07 04:46 | 25.58428 | 52.86972 | 25838 ft | 418 kts | 295° |
| 2026-05-07 04:46 | 25.59823 | 52.84117 | 25833 ft | 417 kts | 296° |
| 2026-05-07 04:47 | 25.61193 | 52.81317 | 25831 ft | 417 kts | 296° |
| 2026-05-07 04:47 | 25.62566 | 52.78507 | 25838 ft | 417 kts | 295° |
| 2026-05-07 04:47 | 25.63949 | 52.75671 | 25838 ft | 417 kts | 295° |
| 2026-05-07 04:47 | 25.65336 | 52.72826 | 25839 ft | 417 kts | 296° |
| 2026-05-07 04:48 | 25.66701 | 52.70023 | 25840 ft | 417 kts | 295° |
| 2026-05-07 04:48 | 25.68092 | 52.67166 | 25839 ft | 417 kts | 295° |
| 2026-05-07 04:48 | 25.69451 | 52.64373 | 25835 ft | 417 kts | 295° |
| 2026-05-07 04:48 | 25.70824 | 52.61546 | 25839 ft | 417 kts | 295° |
| 2026-05-07 04:49 | 25.72207 | 52.58698 | 25843 ft | 417 kts | 295° |
| 2026-05-07 04:49 | 25.73584 | 52.55861 | 25840 ft | 417 kts | 295° |
| 2026-05-07 04:49 | 25.74961 | 52.53021 | 25844 ft | 418 kts | 295° |
| 2026-05-07 04:49 | 25.76328 | 52.50199 | 25845 ft | 417 kts | 295° |
| 2026-05-07 04:50 | 25.77662 | 52.47352 | 25845 ft | 417 kts | 294° |
| 2026-05-07 04:50 | 25.78987 | 52.44492 | 25846 ft | 417 kts | 294° |
| 2026-05-07 04:50 | 25.80320 | 52.41618 | 25846 ft | 417 kts | 294° |
| 2026-05-07 04:50 | 25.81634 | 52.38784 | 25845 ft | 417 kts | 294° |
| 2026-05-07 04:51 | 25.82963 | 52.35918 | 25844 ft | 417 kts | 294° |
| 2026-05-07 04:51 | 25.84285 | 52.33065 | 25852 ft | 416 kts | 294° |
| 2026-05-07 04:51 | 25.85615 | 52.30197 | 25851 ft | 415 kts | 294° |
| 2026-05-07 04:51 | 25.87051 | 52.27407 | 25850 ft | 417 kts | 301° |
| 2026-05-07 04:52 | 25.88882 | 52.24881 | 25852 ft | 422 kts | 308° |
| 2026-05-07 04:52 | 25.90853 | 52.22487 | 25847 ft | 422 kts | 309° |
| 2026-05-07 04:52 | 25.92858 | 52.20071 | 25848 ft | 422 kts | 309° |
| 2026-05-07 04:52 | 25.94839 | 52.17682 | 25849 ft | 423 kts | 309° |
| 2026-05-07 04:53 | 25.96831 | 52.15277 | 25848 ft | 423 kts | 309° |
| 2026-05-07 04:53 | 25.98808 | 52.12889 | 25848 ft | 423 kts | 308° |
| 2026-05-07 04:53 | 26.00819 | 52.10457 | 25850 ft | 424 kts | 309° |
| 2026-05-07 04:53 | 26.02816 | 52.08042 | 25845 ft | 423 kts | 308° |
| 2026-05-07 04:54 | 26.04796 | 52.05645 | 25838 ft | 423 kts | 308° |
| 2026-05-07 04:54 | 26.06788 | 52.03233 | 25835 ft | 422 kts | 308° |
| 2026-05-07 04:54 | 26.08783 | 52.00817 | 25837 ft | 422 kts | 308° |
| 2026-05-07 04:54 | 26.10753 | 51.98431 | 25831 ft | 423 kts | 309° |
| 2026-05-07 04:55 | 26.12741 | 51.96020 | 25830 ft | 422 kts | 308° |
| 2026-05-07 04:55 | 26.14733 | 51.93604 | 25826 ft | 422 kts | 309° |
| 2026-05-07 04:55 | 26.16713 | 51.91201 | 25827 ft | 421 kts | 309° |
| 2026-05-07 04:55 | 26.18725 | 51.88757 | 25828 ft | 422 kts | 308° |
| 2026-05-07 04:56 | 26.20709 | 51.86347 | 25835 ft | 422 kts | 309° |
| 2026-05-07 04:56 | 26.22677 | 51.83955 | 25833 ft | 423 kts | 308° |
| 2026-05-07 04:56 | 26.24596 | 51.81467 | 25829 ft | 420 kts | 302° |
| 2026-05-07 04:56 | 26.26114 | 51.78744 | 25829 ft | 416 kts | 294° |
| 2026-05-07 04:57 | 26.27429 | 51.75848 | 25833 ft | 417 kts | 293° |
| 2026-05-07 04:57 | 26.28707 | 51.72983 | 25832 ft | 415 kts | 293° |
| 2026-05-07 04:57 | 26.29999 | 51.70083 | 25832 ft | 415 kts | 293° |
| 2026-05-07 04:57 | 26.31271 | 51.67225 | 25838 ft | 416 kts | 293° |
| 2026-05-07 04:58 | 26.32549 | 51.64354 | 25834 ft | 415 kts | 293° |
| 2026-05-07 04:58 | 26.33845 | 51.61449 | 25749 ft | 410 kts | 293° |
| 2026-05-07 04:58 | 26.35104 | 51.58624 | 25089 ft | 412 kts | 293° |
| 2026-05-07 04:58 | 26.36359 | 51.55806 | 24703 ft | 405 kts | 294° |
| 2026-05-07 04:59 | 26.37590 | 51.53018 | 24302 ft | 398 kts | 291° |
| 2026-05-07 04:59 | 26.38586 | 51.50150 | 23848 ft | 393 kts | 288° |
| 2026-05-07 04:59 | 26.39502 | 51.47286 | 23354 ft | 390 kts | 288° |
| 2026-05-07 04:59 | 26.40397 | 51.44480 | 22874 ft | 390 kts | 288° |
| 2026-05-07 05:00 | 26.41317 | 51.41592 | 22372 ft | 402 kts | 288° |
| 2026-05-07 05:00 | 26.42252 | 51.38657 | 21851 ft | 402 kts | 288° |
| 2026-05-07 05:00 | 26.43186 | 51.35730 | 21353 ft | 399 kts | 288° |
| 2026-05-07 05:00 | 26.44115 | 51.32823 | 20852 ft | 396 kts | 287° |
| 2026-05-07 05:01 | 26.44795 | 51.29884 | 20348 ft | 391 kts | 277° |
| 2026-05-07 05:01 | 26.44957 | 51.26906 | 19829 ft | 383 kts | 265° |
| 2026-05-07 05:01 | 26.44633 | 51.24005 | 19373 ft | 367 kts | 255° |
| 2026-05-07 05:01 | 26.43896 | 51.21349 | 19027 ft | 350 kts | 246° |
| 2026-05-07 05:02 | 26.42833 | 51.18977 | 18591 ft | 338 kts | 237° |
| 2026-05-07 05:02 | 26.41579 | 51.16783 | 18007 ft | 333 kts | 236° |
| 2026-05-07 05:02 | 26.40317 | 51.14641 | 17319 ft | 332 kts | 236° |
| 2026-05-07 05:02 | 26.39041 | 51.12481 | 16584 ft | 332 kts | 236° |
| 2026-05-07 05:03 | 26.38426 | 51.11439 | 16262 ft | 332 kts | 236° |
| 2026-05-07 05:03 | 26.37172 | 51.09318 | 15645 ft | 328 kts | 236° |
| 2026-05-07 05:03 | 26.35926 | 51.07211 | 14980 ft | 327 kts | 236° |
| 2026-05-07 05:03 | 26.34671 | 51.05092 | 14253 ft | 328 kts | 235° |
| 2026-05-07 05:04 | 26.33421 | 51.02980 | 13528 ft | 328 kts | 235° |
| 2026-05-07 05:04 | 26.32161 | 51.00853 | 12774 ft | 329 kts | 236° |
| 2026-05-07 05:04 | 26.30902 | 50.98730 | 11968 ft | 331 kts | 236° |
| 2026-05-07 05:04 | 26.29629 | 50.96583 | 11169 ft | 333 kts | 236° |
| 2026-05-07 05:05 | 26.28355 | 50.94435 | 10355 ft | 334 kts | 237° |
| 2026-05-07 05:05 | 26.27072 | 50.92315 | 9580 ft | 336 kts | 232° |
| 2026-05-07 05:05 | 26.25332 | 50.90588 | 8770 ft | 336 kts | 208° |
| 2026-05-07 05:05 | 26.23142 | 50.89791 | 8277 ft | 325 kts | 184° |
| 2026-05-07 05:06 | 26.20951 | 50.90028 | 7939 ft | 309 kts | 160° |
| 2026-05-07 05:06 | 26.19149 | 50.91180 | 7658 ft | 294 kts | 135° |
| 2026-05-07 05:06 | 26.17912 | 50.92894 | 7540 ft | 279 kts | 120° |
| 2026-05-07 05:06 | 26.17195 | 50.94862 | 7452 ft | 265 kts | 104° |
| 2026-05-07 05:07 | 26.16740 | 50.96787 | 7361 ft | 255 kts | 103° |
| 2026-05-07 05:07 | 26.16305 | 50.98700 | 7154 ft | 250 kts | 103° |
| 2026-05-07 05:07 | 26.15892 | 51.00538 | 6973 ft | 242 kts | 100° |
| 2026-05-07 05:07 | 26.15932 | 51.02360 | 6597 ft | 240 kts | 70° |
| 2026-05-07 05:08 | 26.16816 | 51.03904 | 6190 ft | 237 kts | 38° |
| 2026-05-07 05:08 | 26.18286 | 51.04682 | 6119 ft | 232 kts | 8° |
| 2026-05-07 05:08 | 26.19863 | 51.04574 | 6038 ft | 232 kts | 342° |
| 2026-05-07 05:08 | 26.21249 | 51.03622 | 5767 ft | 234 kts | 314° |
| 2026-05-07 05:09 | 26.22033 | 51.02088 | 5422 ft | 237 kts | 286° |
| 2026-05-07 05:09 | 26.22075 | 51.00257 | 5089 ft | 239 kts | 264° |
| 2026-05-07 05:09 | 26.21808 | 50.98459 | 4797 ft | 239 kts | 262° |
| 2026-05-07 05:09 | 26.21520 | 50.96617 | 4502 ft | 237 kts | 262° |
| 2026-05-07 05:10 | 26.21235 | 50.94804 | 4219 ft | 236 kts | 262° |
| 2026-05-07 05:10 | 26.20953 | 50.92999 | 3944 ft | 237 kts | 262° |
| 2026-05-07 05:10 | 26.20671 | 50.91202 | 3666 ft | 238 kts | 262° |
| 2026-05-07 05:10 | 26.20384 | 50.89378 | 3389 ft | 237 kts | 262° |
| 2026-05-07 05:11 | 26.20104 | 50.87604 | 3291 ft | 224 kts | 263° |
| 2026-05-07 05:11 | 26.19843 | 50.85957 | 3227 ft | 212 kts | 263° |
| 2026-05-07 05:11 | 26.19592 | 50.84363 | 3159 ft | 208 kts | 263° |
| 2026-05-07 05:11 | 26.19341 | 50.82769 | 3078 ft | 206 kts | 263° |
| 2026-05-07 05:12 | 26.19097 | 50.81211 | 2990 ft | 205 kts | 263° |
| 2026-05-07 05:12 | 26.18847 | 50.79619 | 2778 ft | 206 kts | 263° |
| 2026-05-07 05:12 | 26.18699 | 50.78070 | 2528 ft | 200 kts | 280° |
| 2026-05-07 05:12 | 26.19211 | 50.76697 | 2287 ft | 188 kts | 313° |
| 2026-05-07 05:13 | 26.20006 | 50.75563 | 2077 ft | 181 kts | 309° |
| 2026-05-07 05:13 | 26.20115 | 50.75387 | 2045 ft | 180 kts | 309° |
| 2026-05-07 05:13 | 26.20596 | 50.74558 | 1904 ft | 174 kts | 307° |
| 2026-05-07 05:14 | 26.21233 | 50.73441 | 1709 ft | 169 kts | 308° |
| 2026-05-07 05:14 | 26.21849 | 50.72381 | 1520 ft | 158 kts | 308° |
| 2026-05-07 05:14 | 26.22446 | 50.71355 | 1330 ft | 156 kts | 308° |
| 2026-05-07 05:14 | 26.23029 | 50.70348 | 1145 ft | 153 kts | 308° |
| 2026-05-07 05:15 | 26.23611 | 50.69347 | 955 ft | 152 kts | 307° |
| 2026-05-07 05:15 | 26.24182 | 50.68365 | 758 ft | 151 kts | 307° |
| 2026-05-07 05:15 | 26.24753 | 50.67385 | 565 ft | 150 kts | 307° |
| 2026-05-07 05:15 | 26.25317 | 50.66403 | 380 ft | 149 kts | 307° |
| 2026-05-07 05:16 | 26.25876 | 50.65445 | 183 ft | 148 kts | 306° |
| 2026-05-07 05:16 | 26.26441 | 50.64474 | 28 ft | 145 kts | 306° |
| 2026-05-07 05:16 | 26.26918 | 50.63659 | 18 ft | 101 kts | 303° |
| 2026-05-07 05:16 | 26.27202 | 50.63166 | 18 ft | 47 kts | 303° |
| 2026-05-07 05:17 | 26.27324 | 50.62957 | 18 ft | 28 kts | 303° |
| 2026-05-07 05:17 | 26.27423 | 50.62784 | 18 ft | 25 kts | 302° |
| 2026-05-07 05:17 | 26.27462 | 50.62711 | 18 ft | 8 kts | 294° |
| 2026-05-07 05:17 | 26.27456 | 50.62656 | 18 ft | 7 kts | 224° |
| 2026-05-07 05:18 | 26.27415 | 50.62622 | 18 ft | 7 kts | 217° |
| 2026-05-07 05:18 | 26.27371 | 50.62590 | 18 ft | 7 kts | 213° |
| 2026-05-07 05:18 | 26.27326 | 50.62558 | 18 ft | 7 kts | 212° |
| 2026-05-07 05:18 | 26.27280 | 50.62529 | 18 ft | 7 kts | 197° |
| 2026-05-07 05:19 | 26.27234 | 50.62537 | 18 ft | 6 kts | 175° |
| 2026-05-07 05:19 | 26.27187 | 50.62523 | 18 ft | 7 kts | 206° |
| 2026-05-07 05:19 | 26.27157 | 50.62503 | 18 ft | 0 kts | 213° |